createdAt,value
2022-08-07T00:12:01.347Z,52.78
2022-08-07T00:33:47.759Z,53.45
2022-08-07T00:56:03.403Z,53.86
2022-08-07T01:17:40.194Z,54.62
2022-08-07T01:39:26.957Z,56.22
2022-08-07T02:02:00.216Z,57.07
2022-08-07T02:23:39.503Z,57.60
2022-08-07T02:45:59.446Z,58.23
2022-08-07T03:08:04.806Z,59.01
2022-08-07T03:29:49.603Z,60.05
2022-08-07T03:51:47.107Z,61.06
2022-08-07T04:14:09.927Z,61.79
2022-08-07T04:35:41.775Z,61.84
2022-08-07T04:58:24.504Z,60.39
2022-08-07T05:19:44.941Z,57.98
2022-08-07T05:42:00.727Z,57.34
2022-08-07T06:03:53.983Z,56.64
2022-08-07T06:25:54.905Z,56.36
2022-08-07T06:47:48.233Z,55.16
2022-08-07T07:09:50.836Z,55.26
2022-08-07T07:31:44.516Z,55.01
2022-08-07T07:53:35.447Z,54.31
2022-08-07T08:15:23.311Z,50.15
2022-08-07T08:37:59.330Z,32.95
2022-08-07T08:59:26.581Z,26.38
2022-08-07T09:21:33.784Z,20.19
2022-08-07T09:44:03.678Z,25.09
2022-08-07T10:06:17.975Z,28.74
2022-08-07T10:28:27.186Z,29.08
2022-08-07T10:50:26.561Z,29.36
2022-08-07T11:12:32.018Z,21.17
2022-08-07T11:34:26.756Z,13.61
2022-08-07T11:56:35.273Z,8.62
2022-08-07T12:18:38.391Z,6.71
2022-08-07T12:40:47.595Z,5.56
2022-08-07T13:03:06.781Z,5.79
2022-08-07T13:25:00.052Z,6.49
2022-08-07T13:46:54.504Z,6.64
2022-08-07T14:08:45.376Z,8.24
2022-08-07T14:30:36.288Z,9.84
2022-08-07T14:52:29.006Z,11.22
2022-08-07T15:14:21.348Z,14.49
2022-08-07T15:36:10.506Z,15.88
2022-08-07T15:58:00.352Z,16.88
2022-08-07T16:20:03.922Z,17.95
2022-08-07T16:42:13.713Z,20.64
2022-08-07T17:04:12.184Z,24.65
2022-08-07T17:26:24.292Z,27.52
2022-08-07T17:48:30.927Z,29.78
2022-08-07T18:10:32.967Z,32.13
2022-08-07T18:32:41.630Z,33.85
2022-08-07T18:54:49.586Z,35.78
2022-08-07T19:17:06.592Z,37.71
2022-08-07T19:38:59.606Z,39.47
2022-08-07T20:00:54.119Z,40.94
2022-08-07T20:22:48.033Z,42.91
2022-08-07T20:44:39.530Z,44.01
2022-08-07T21:06:33.317Z,45.05
2022-08-07T21:28:47.628Z,46.19
2022-08-07T21:50:36.296Z,47.30
2022-08-07T22:12:25.481Z,48.09
2022-08-07T22:34:18.824Z,48.92
2022-08-07T22:56:28.810Z,49.71
2022-08-07T23:18:42.123Z,50.29
2022-08-07T23:40:39.716Z,50.85
